Time;durP1;ratioP1;P1;durP2;ratioP2;P2;SDS_P1;SDS_P2;PMS_P1;PMS_P2;Temp;Humidity;BMP_temperature;BMP_pressure;BME280_temperature;BME280_humidity;BME280_pressure;Samples;Min_cycle;Max_cycle;Signal;HPM_P1;HPM_P2
2024/04/16 09:18:24;;;;;;;5.67;2.25;;;;;;;;;;1938990;73;25747;-45
2024/04/16 09:20:54;;;;;;;6.80;1.75;;;;;;;;;;1900283;75;21098;-47
2024/04/16 09:23:23;;;;;;;5.30;1.50;;;;;;;;;;1884861;76;21026;-45
2024/04/16 09:25:52;;;;;;;8.55;1.82;;;;;;;;;;1883954;76;21078;-45
2024/04/16 09:28:21;;;;;;;16.95;2.45;;;;;;;;;;1896535;75;21036;-45
2024/04/16 09:30:56;;;;;;;14.58;2.47;;;;;;;;;;1885044;76;21004;-45
2024/04/16 09:33:30;;;;;;;9.88;1.87;;;;;;;;;;1884983;76;21091;-45
2024/04/16 09:35:56;;;;;;;11.20;2.12;;;;;;;;;;1904871;75;21059;-45
2024/04/16 09:38:25;;;;;;;5.72;1.77;;;;;;;;;;1917447;75;21155;-45
2024/04/16 09:40:54;;;;;;;6.75;1.57;;;;;;;;;;1917255;75;21155;-45
2024/04/16 09:43:23;;;;;;;6.95;2.08;;;;;;;;;;1888010;75;21165;-46
2024/04/16 09:45:52;;;;;;;10.78;2.00;;;;;;;;;;1884533;76;21063;-45
2024/04/16 09:48:21;;;;;;;4.42;1.77;;;;;;;;;;1884916;76;21012;-45
2024/04/16 09:50:51;;;;;;;5.30;1.67;;;;;;;;;;1884848;76;21005;-45
2024/04/16 09:53:21;;;;;;;8.65;2.37;;;;;;;;;;1899213;73;21081;-45
2024/04/16 09:55:49;;;;;;;8.75;2.00;;;;;;;;;;1899781;73;21178;-46
2024/04/16 09:58:18;;;;;;;3.00;1.60;;;;;;;;;;1897654;73;21165;-45
2024/04/16 10:00:46;;;;;;;6.03;1.67;;;;;;;;;;1891254;73;21071;-44
2024/04/16 10:03:15;;;;;;;4.05;1.90;;;;;;;;;;1927277;73;21069;-45
2024/04/16 10:05:43;;;;;;;4.03;1.75;;;;;;;;;;1890064;75;21178;-45
2024/04/16 10:08:12;;;;;;;15.05;2.45;;;;;;;;;;1897008;73;21110;-45
2024/04/16 10:10:40;;;;;;;3.62;1.92;;;;;;;;;;1898658;75;21028;-46
2024/04/16 10:13:09;;;;;;;6.12;1.85;;;;;;;;;;1902589;73;21084;-45
2024/04/16 10:15:37;;;;;;;8.43;2.35;;;;;;;;;;1906085;73;21474;-45
2024/04/16 10:18:06;;;;;;;7.03;1.98;;;;;;;;;;1890601;75;21184;-46
2024/04/16 10:20:35;;;;;;;9.05;2.40;;;;;;;;;;1889474;75;21051;-45
2024/04/16 10:23:06;;;;;;;3.77;2.60;;;;;;;;;;1885605;75;21023;-46
2024/04/16 10:25:36;;;;;;;7.33;2.47;;;;;;;;;;1882871;75;21196;-45
2024/04/16 10:28:05;;;;;;;8.83;2.50;;;;;;;;;;1890025;75;21138;-45
2024/04/16 10:30:36;;;;;;;14.63;3.10;;;;;;;;;;1895241;75;21070;-45
2024/04/16 10:33:05;;;;;;;23.67;11.48;;;;;;;;;;1883784;75;21538;-46
2024/04/16 10:35:34;;;;;;;6.08;2.40;;;;;;;;;;1887153;75;21083;-45
2024/04/16 10:38:03;;;;;;;7.42;2.12;;;;;;;;;;1886303;75;21087;-45
2024/04/16 10:40:32;;;;;;;6.45;2.02;;;;;;;;;;1886858;75;21110;-45
2024/04/16 10:43:01;;;;;;;6.55;2.22;;;;;;;;;;1886156;75;21019;-44
2024/04/16 10:45:29;;;;;;;5.53;1.95;;;;;;;;;;1889041;75;21168;-44
2024/04/16 10:47:58;;;;;;;4.75;1.57;;;;;;;;;;1876293;75;21051;-45
2024/04/16 10:50:27;;;;;;;7.22;1.75;;;;;;;;;;1885708;74;21097;-44
2024/04/16 10:52:56;;;;;;;3.00;1.85;;;;;;;;;;1889217;74;21064;-44
2024/04/16 10:55:25;;;;;;;8.48;2.33;;;;;;;;;;1881416;75;21068;-50
2024/04/16 10:57:54;;;;;;;6.45;1.72;;;;;;;;;;1871266;76;21108;-52
2024/04/16 11:00:23;;;;;;;14.98;1.90;;;;;;;;;;1872538;77;21096;-52
2024/04/16 11:02:51;;;;;;;16.60;2.62;;;;;;;;;;1872867;76;21029;-48
2024/04/16 11:05:21;;;;;;;11.53;2.20;;;;;;;;;;1872778;75;21024;-48
2024/04/16 11:07:50;;;;;;;15.95;3.12;;;;;;;;;;1872794;77;21028;-48
2024/04/16 11:10:19;;;;;;;11.20;2.10;;;;;;;;;;1872883;76;21095;-47
2024/04/16 11:12:47;;;;;;;1.92;1.50;;;;;;;;;;1872691;77;21127;-47
2024/04/16 11:15:16;;;;;;;11.55;2.50;;;;;;;;;;1872805;77;21076;-49
2024/04/16 11:17:45;;;;;;;9.78;1.77;;;;;;;;;;1876053;76;21080;-50
2024/04/16 11:20:15;;;;;;;10.50;1.77;;;;;;;;;;1882176;76;21032;-49
2024/04/16 11:22:43;;;;;;;9.35;2.17;;;;;;;;;;1882292;76;20988;-48
2024/04/16 11:25:16;;;;;;;7.22;1.30;;;;;;;;;;1882159;76;21024;-50
2024/04/16 11:27:45;;;;;;;5.40;2.05;;;;;;;;;;1881730;76;21025;-47
2024/04/16 11:30:13;;;;;;;2.35;1.17;;;;;;;;;;1882200;76;21107;-47
2024/04/16 11:32:42;;;;;;;2.77;1.52;;;;;;;;;;1882087;76;21126;-48
2024/04/16 11:35:12;;;;;;;4.08;1.98;;;;;;;;;;1882160;76;21079;-47
2024/04/16 11:37:42;;;;;;;5.53;1.75;;;;;;;;;;1882206;76;21044;-47
2024/04/16 11:40:11;;;;;;;11.30;2.87;;;;;;;;;;1882029;76;21048;-48
2024/04/16 11:42:40;;;;;;;6.55;1.75;;;;;;;;;;1882137;76;21084;-47
2024/04/16 11:45:08;;;;;;;4.33;1.20;;;;;;;;;;1882257;76;21063;-47
2024/04/16 11:47:37;;;;;;;6.45;2.40;;;;;;;;;;1882193;76;21036;-47
2024/04/16 11:50:06;;;;;;;9.73;1.30;;;;;;;;;;1882170;76;21150;-47
2024/04/16 11:52:34;;;;;;;8.53;1.55;;;;;;;;;;1882221;76;21037;-47
2024/04/16 11:55:03;;;;;;;10.35;2.15;;;;;;;;;;1882218;76;21040;-48
2024/04/16 11:57:32;;;;;;;11.12;1.92;;;;;;;;;;1882243;76;21024;-47
2024/04/16 12:00:00;;;;;;;7.90;1.75;;;;;;;;;;1882410;76;21020;-47
2024/04/16 12:02:31;;;;;;;15.00;2.95;;;;;;;;;;1880778;76;21033;-47
2024/04/16 12:04:59;;;;;;;9.70;1.50;;;;;;;;;;1882167;76;21105;-47
2024/04/16 12:07:28;;;;;;;4.40;1.77;;;;;;;;;;1882247;76;21024;-47
2024/04/16 12:09:56;;;;;;;6.80;1.52;;;;;;;;;;1882166;76;21037;-47
2024/04/16 12:12:25;;;;;;;2.95;1.22;;;;;;;;;;1882138;76;21110;-48
2024/04/16 12:14:53;;;;;;;11.38;2.25;;;;;;;;;;1882165;76;21008;-47
2024/04/16 12:17:22;;;;;;;3.12;0.78;;;;;;;;;;1882237;76;21094;-48
2024/04/16 12:19:50;;;;;;;5.72;1.22;;;;;;;;;;1872873;76;21118;-47
2024/04/16 12:22:20;;;;;;;6.20;1.30;;;;;;;;;;1872723;77;21040;-48
2024/04/16 12:24:48;;;;;;;4.90;1.17;;;;;;;;;;1872666;77;21045;-48
2024/04/16 12:27:17;;;;;;;5.33;1.37;;;;;;;;;;1872711;77;21005;-48
2024/04/16 12:29:46;;;;;;;8.45;1.50;;;;;;;;;;1872719;77;21092;-48
2024/04/16 12:32:14;;;;;;;8.18;1.45;;;;;;;;;;1872724;77;21029;-47
2024/04/16 12:34:43;;;;;;;9.50;1.10;;;;;;;;;;1872745;77;21053;-47
2024/04/16 12:37:11;;;;;;;10.43;1.85;;;;;;;;;;1872891;77;21103;-48
2024/04/16 12:39:40;;;;;;;5.28;1.80;;;;;;;;;;1872717;77;21037;-47
2024/04/16 12:42:09;;;;;;;5.40;1.12;;;;;;;;;;1872775;76;21073;-47
2024/04/16 12:44:38;;;;;;;14.05;2.42;;;;;;;;;;1872737;77;21123;-47
2024/04/16 12:47:08;;;;;;;4.10;1.00;;;;;;;;;;1872713;76;21029;-47
2024/04/16 12:49:36;;;;;;;6.08;1.20;;;;;;;;;;1872762;77;21017;-48
2024/04/16 12:52:05;;;;;;;5.08;1.00;;;;;;;;;;1872669;76;21041;-47
2024/04/16 12:54:35;;;;;;;4.92;1.65;;;;;;;;;;1872699;76;21107;-48
2024/04/16 12:57:04;;;;;;;2.90;1.15;;;;;;;;;;1872819;77;21029;-47
2024/04/16 12:59:32;;;;;;;4.50;1.50;;;;;;;;;;1872792;77;21114;-48
2024/04/16 13:02:00;;;;;;;3.10;1.05;;;;;;;;;;1872822;77;21111;-48
2024/04/16 13:04:29;;;;;;;3.17;1.37;;;;;;;;;;1872802;76;21038;-47
2024/04/16 13:06:58;;;;;;;2.80;1.42;;;;;;;;;;1872770;76;21049;-48
2024/04/16 13:09:27;;;;;;;1.80;0.80;;;;;;;;;;1872747;76;21025;-48
2024/04/16 13:11:56;;;;;;;3.77;1.42;;;;;;;;;;1872781;77;21064;-48
2024/04/16 13:14:24;;;;;;;6.78;1.20;;;;;;;;;;1872809;77;21092;-47
2024/04/16 13:16:53;;;;;;;5.37;1.67;;;;;;;;;;1873009;77;21471;-48
2024/04/16 13:19:23;;;;;;;3.08;1.30;;;;;;;;;;1878552;76;21060;-48
2024/04/16 13:21:51;;;;;;;2.12;1.05;;;;;;;;;;1882411;76;21016;-48
2024/04/16 13:24:20;;;;;;;5.08;1.47;;;;;;;;;;1882423;76;21009;-48
2024/04/16 13:26:49;;;;;;;1.85;1.10;;;;;;;;;;1882493;76;21025;-47
2024/04/16 13:29:17;;;;;;;4.58;1.12;;;;;;;;;;1882366;76;21012;-48
2024/04/16 13:31:46;;;;;;;3.80;1.40;;;;;;;;;;1882390;76;21136;-49
2024/04/16 13:34:14;;;;;;;1.30;1.00;;;;;;;;;;1882177;76;21077;-49
2024/04/16 13:36:43;;;;;;;4.10;1.05;;;;;;;;;;1882170;76;21028;-49
2024/04/16 13:39:12;;;;;;;2.27;1.05;;;;;;;;;;1882452;76;21134;-49
2024/04/16 13:41:40;;;;;;;2.45;1.10;;;;;;;;;;1882208;76;21018;-50
2024/04/16 13:44:09;;;;;;;2.35;0.82;;;;;;;;;;1882193;76;21020;-50
2024/04/16 13:46:39;;;;;;;2.10;1.00;;;;;;;;;;1882132;76;21088;-50
2024/04/16 13:49:07;;;;;;;4.00;1.12;;;;;;;;;;1882153;76;21017;-49
2024/04/16 13:51:36;;;;;;;2.60;1.42;;;;;;;;;;1882125;76;21080;-50
2024/04/16 13:54:05;;;;;;;3.50;1.20;;;;;;;;;;1882175;76;21091;-49
2024/04/16 13:56:33;;;;;;;3.02;1.25;;;;;;;;;;1882232;76;21143;-51
2024/04/16 13:59:02;;;;;;;3.90;1.25;;;;;;;;;;1882179;76;21009;-51
2024/04/16 14:01:30;;;;;;;2.92;1.00;;;;;;;;;;1882099;76;21041;-49
2024/04/16 14:03:59;;;;;;;6.95;1.17;;;;;;;;;;1882206;76;20985;-48
2024/04/16 14:06:27;;;;;;;4.05;1.30;;;;;;;;;;1882303;76;21122;-49
2024/04/16 14:08:57;;;;;;;5.28;1.47;;;;;;;;;;1882236;76;21080;-49
2024/04/16 14:11:26;;;;;;;1.40;0.90;;;;;;;;;;1882230;76;21161;-49
2024/04/16 14:13:55;;;;;;;2.60;1.27;;;;;;;;;;1882271;76;21118;-49
2024/04/16 14:16:23;;;;;;;1.80;1.00;;;;;;;;;;1882380;76;21024;-52
2024/04/16 14:18:53;;;;;;;2.72;1.15;;;;;;;;;;1882254;76;21228;-52
2024/04/16 14:21:21;;;;;;;5.25;1.00;;;;;;;;;;1882392;76;20997;-52
2024/04/16 14:23:51;;;;;;;3.30;1.10;;;;;;;;;;1882337;76;21033;-50
2024/04/16 14:26:19;;;;;;;2.30;0.93;;;;;;;;;;1882237;76;21102;-51
2024/04/16 14:28:48;;;;;;;3.70;1.30;;;;;;;;;;1882196;76;21032;-52
2024/04/16 14:31:17;;;;;;;1.60;1.20;;;;;;;;;;1882318;76;21016;-51
2024/04/16 14:33:46;;;;;;;3.77;0.95;;;;;;;;;;1882466;76;21012;-50
2024/04/16 14:36:16;;;;;;;1.82;0.85;;;;;;;;;;1882126;76;21098;-52
2024/04/16 14:38:44;;;;;;;4.28;1.90;;;;;;;;;;1912303;75;21489;-51
2024/04/16 14:41:13;;;;;;;4.80;1.30;;;;;;;;;;1905409;75;21180;-49
2024/04/16 14:43:42;;;;;;;2.98;1.05;;;;;;;;;;1897122;75;21179;-52
2024/04/16 14:46:10;;;;;;;3.47;1.10;;;;;;;;;;1897479;75;21007;-51
2024/04/16 14:48:39;;;;;;;3.92;2.65;;;;;;;;;;1899936;75;21074;-51
2024/04/16 14:51:07;;;;;;;4.85;1.25;;;;;;;;;;1900350;75;21090;-51
2024/04/16 14:53:38;;;;;;;1.12;0.80;;;;;;;;;;1899879;75;21072;-51
2024/04/16 14:56:06;;;;;;;8.53;1.10;;;;;;;;;;1900036;75;21417;-49
2024/04/16 14:58:34;;;;;;;1.65;1.05;;;;;;;;;;1900393;75;21203;-49
2024/04/16 15:01:03;;;;;;;3.62;1.12;;;;;;;;;;1896524;75;21229;-48
2024/04/16 15:03:32;;;;;;;2.77;1.20;;;;;;;;;;1899087;75;21084;-49
2024/04/16 15:06:00;;;;;;;2.35;1.10;;;;;;;;;;1899484;75;21106;-48
2024/04/16 15:08:29;;;;;;;1.98;1.02;;;;;;;;;;1905971;75;21098;-49
2024/04/16 15:10:57;;;;;;;2.17;1.10;;;;;;;;;;1904472;75;21003;-49
2024/04/16 15:13:26;;;;;;;3.17;1.00;;;;;;;;;;1899999;75;21219;-51
2024/04/16 15:15:56;;;;;;;2.33;1.10;;;;;;;;;;1897517;75;21040;-49
2024/04/16 15:18:25;;;;;;;2.60;1.10;;;;;;;;;;1896117;75;21007;-48
2024/04/16 15:20:54;;;;;;;4.22;1.22;;;;;;;;;;1899193;75;21100;-48
2024/04/16 15:23:23;;;;;;;3.10;1.30;;;;;;;;;;1899284;75;21106;-49
2024/04/16 15:25:52;;;;;;;4.80;1.42;;;;;;;;;;1896849;75;21107;-48
2024/04/16 15:28:20;;;;;;;2.77;1.27;;;;;;;;;;1899906;75;21000;-48
2024/04/16 15:30:49;;;;;;;1.95;1.00;;;;;;;;;;1898714;75;21103;-48
2024/04/16 15:33:17;;;;;;;3.15;1.07;;;;;;;;;;1896499;75;21032;-49
2024/04/16 15:35:50;;;;;;;3.27;1.37;;;;;;;;;;1898431;75;21066;-48
2024/04/16 15:38:19;;;;;;;3.05;1.10;;;;;;;;;;1900188;75;20985;-49
2024/04/16 15:40:49;;;;;;;7.83;1.67;;;;;;;;;;1898264;75;21046;-47
2024/04/16 15:43:18;;;;;;;1.70;1.07;;;;;;;;;;1899976;75;21454;-49
2024/04/16 15:45:47;;;;;;;3.60;1.45;;;;;;;;;;1898130;75;21165;-49
2024/04/16 15:48:15;;;;;;;3.62;2.20;;;;;;;;;;1896553;75;21134;-49
2024/04/16 15:50:44;;;;;;;4.62;1.40;;;;;;;;;;1898907;75;21015;-48
2024/04/16 15:53:13;;;;;;;4.12;1.95;;;;;;;;;;1899547;75;21025;-48
2024/04/16 15:55:45;;;;;;;4.10;1.82;;;;;;;;;;1900001;75;21031;-48
2024/04/16 15:58:15;;;;;;;7.72;2.35;;;;;;;;;;1895624;75;21010;-48
2024/04/16 16:00:43;;;;;;;3.92;1.98;;;;;;;;;;1899270;75;21088;-47
2024/04/16 16:03:12;;;;;;;2.15;1.20;;;;;;;;;;1899620;75;21075;-50
2024/04/16 16:05:45;;;;;;;4.85;1.45;;;;;;;;;;1900030;75;20999;-48
2024/04/16 16:08:11;;;;;;;1.80;1.10;;;;;;;;;;1898896;75;21439;-47
2024/04/16 16:10:40;;;;;;;4.20;1.00;;;;;;;;;;1896641;75;21028;-49
2024/04/16 16:13:09;;;;;;;2.27;1.20;;;;;;;;;;1897916;75;20999;-48
2024/04/16 16:15:38;;;;;;;4.75;1.55;;;;;;;;;;1899960;75;21035;-48
2024/04/16 16:18:06;;;;;;;3.37;1.55;;;;;;;;;;1898074;75;21060;-47
2024/04/16 16:20:36;;;;;;;3.60;1.70;;;;;;;;;;1892055;75;21225;-48
2024/04/16 16:23:04;;;;;;;6.20;1.85;;;;;;;;;;1889546;75;21003;-47
2024/04/16 16:25:33;;;;;;;3.02;1.30;;;;;;;;;;1889993;75;21106;-47
2024/04/16 16:28:02;;;;;;;5.37;1.52;;;;;;;;;;1887458;75;21102;-46
2024/04/16 16:30:31;;;;;;;2.60;1.25;;;;;;;;;;1887999;74;21100;-48
2024/04/16 16:32:59;;;;;;;1.95;1.27;;;;;;;;;;1890336;75;21011;-47
2024/04/16 16:35:28;;;;;;;4.17;1.10;;;;;;;;;;1888830;75;21005;-47
2024/04/16 16:37:58;;;;;;;1.85;0.85;;;;;;;;;;1887094;75;21157;-48
2024/04/16 16:40:26;;;;;;;4.78;1.52;;;;;;;;;;1895272;75;21063;-50
2024/04/16 16:42:54;;;;;;;9.75;2.05;;;;;;;;;;1905185;75;21079;-48
2024/04/16 16:45:23;;;;;;;3.77;1.60;;;;;;;;;;1905185;75;21443;-48
2024/04/16 16:47:55;;;;;;;7.20;1.82;;;;;;;;;;1903971;75;21062;-49
2024/04/16 16:50:21;;;;;;;3.47;1.22;;;;;;;;;;1905021;74;21477;-48
2024/04/16 16:52:50;;;;;;;1.30;0.80;;;;;;;;;;1905255;75;21205;-50
2024/04/16 16:55:18;;;;;;;3.00;1.22;;;;;;;;;;1905419;75;21040;-49
2024/04/16 16:57:47;;;;;;;2.00;0.85;;;;;;;;;;1905280;75;21140;-49
2024/04/16 17:00:16;;;;;;;2.40;0.90;;;;;;;;;;1905387;75;21032;-47
2024/04/16 17:02:44;;;;;;;4.70;1.32;;;;;;;;;;1905310;75;21094;-47
2024/04/16 17:05:12;;;;;;;3.37;1.72;;;;;;;;;;1905275;75;21014;-48
2024/04/16 17:07:41;;;;;;;1.22;0.82;;;;;;;;;;1905276;75;21008;-48
2024/04/16 17:10:09;;;;;;;3.10;1.07;;;;;;;;;;1905250;75;21023;-48
2024/04/16 17:12:38;;;;;;;6.25;1.98;;;;;;;;;;1905400;75;21019;-48
2024/04/16 17:15:07;;;;;;;2.72;0.90;;;;;;;;;;1905388;75;21007;-48
2024/04/16 17:17:36;;;;;;;9.55;1.65;;;;;;;;;;1905280;75;21011;-47
2024/04/16 17:20:06;;;;;;;3.05;1.10;;;;;;;;;;1905159;74;21101;-47
2024/04/16 17:22:35;;;;;;;3.20;1.35;;;;;;;;;;1905303;75;21085;-47
2024/04/16 17:25:03;;;;;;;5.72;1.70;;;;;;;;;;1905228;75;21113;-47
2024/04/16 17:27:31;;;;;;;3.60;1.50;;;;;;;;;;1905245;75;21097;-48
2024/04/16 17:30:00;;;;;;;3.80;1.50;;;;;;;;;;1905172;75;21031;-48
2024/04/16 17:32:29;;;;;;;2.17;1.37;;;;;;;;;;1905222;75;21093;-48
2024/04/16 17:34:57;;;;;;;4.40;1.02;;;;;;;;;;1905279;75;21070;-48
2024/04/16 17:37:26;;;;;;;5.87;1.12;;;;;;;;;;1905302;75;21008;-48
2024/04/16 17:39:55;;;;;;;1.40;1.07;;;;;;;;;;1905517;75;21008;-47
2024/04/16 17:42:23;;;;;;;1.12;0.80;;;;;;;;;;1905486;75;21164;-48
2024/04/16 17:44:53;;;;;;;3.70;1.90;;;;;;;;;;1905451;75;21032;-48
2024/04/16 17:47:21;;;;;;;3.80;1.32;;;;;;;;;;1905417;75;21093;-48
2024/04/16 17:49:50;;;;;;;3.47;1.02;;;;;;;;;;1905388;75;21097;-48
2024/04/16 17:52:19;;;;;;;3.83;1.12;;;;;;;;;;1905496;75;20992;-48
2024/04/16 17:54:50;;;;;;;1.85;0.90;;;;;;;;;;1905375;75;21083;-48
2024/04/16 17:57:18;;;;;;;2.77;1.05;;;;;;;;;;1905412;75;21404;-48
2024/04/16 17:59:47;;;;;;;4.08;0.80;;;;;;;;;;1905383;75;21012;-48
2024/04/16 18:02:17;;;;;;;4.37;0.78;;;;;;;;;;1905401;75;21512;-48
2024/04/16 18:04:45;;;;;;;3.17;1.07;;;;;;;;;;1905514;75;21011;-48
2024/04/16 18:07:14;;;;;;;4.12;0.98;;;;;;;;;;1905550;75;21054;-48
2024/04/16 18:09:42;;;;;;;3.17;1.05;;;;;;;;;;1905354;75;21129;-48
2024/04/16 18:12:11;;;;;;;3.98;1.00;;;;;;;;;;1905376;75;21032;-48
2024/04/16 18:14:39;;;;;;;2.25;0.82;;;;;;;;;;1905416;75;21027;-49
2024/04/16 18:17:08;;;;;;;3.12;0.90;;;;;;;;;;1905416;75;21039;-51
2024/04/16 18:19:37;;;;;;;3.47;1.15;;;;;;;;;;1905524;75;21082;-51
2024/04/16 18:22:07;;;;;;;5.35;1.37;;;;;;;;;;1918712;74;21046;-52
2024/04/16 18:24:36;;;;;;;1.65;1.00;;;;;;;;;;1924808;74;21092;-50
2024/04/16 18:27:04;;;;;;;3.35;0.90;;;;;;;;;;1924868;74;21011;-50
2024/04/16 18:29:33;;;;;;;6.15;1.30;;;;;;;;;;1924722;74;21536;-49
2024/04/16 18:32:01;;;;;;;2.35;0.93;;;;;;;;;;1924738;74;21007;-50
2024/04/16 18:34:30;;;;;;;7.53;1.15;;;;;;;;;;1924764;74;21053;-48
2024/04/16 18:36:59;;;;;;;1.42;1.00;;;;;;;;;;1924690;74;21007;-48
2024/04/16 18:39:28;;;;;;;3.37;0.90;;;;;;;;;;1924680;74;21091;-48
2024/04/16 18:41:58;;;;;;;1.37;0.65;;;;;;;;;;1924738;74;21057;-49
2024/04/16 18:44:28;;;;;;;2.15;0.90;;;;;;;;;;1924740;74;21096;-48
2024/04/16 18:46:56;;;;;;;3.30;0.85;;;;;;;;;;1924723;74;21429;-48
2024/04/16 18:49:27;;;;;;;1.42;0.90;;;;;;;;;;1924641;74;21426;-48
2024/04/16 18:51:55;;;;;;;2.70;1.00;;;;;;;;;;1924704;74;21038;-49
2024/04/16 18:54:23;;;;;;;4.30;1.00;;;;;;;;;;1924853;74;20991;-48
2024/04/16 18:57:03;;;;;;;6.10;1.00;;;;;;;;;;1924783;74;21163;-49
2024/04/16 18:59:25;;;;;;;4.45;1.12;;;;;;;;;;1923813;74;21477;-48
2024/04/16 19:01:54;;;;;;;2.05;0.90;;;;;;;;;;1924725;74;21477;-48
2024/04/16 19:04:23;;;;;;;2.20;0.80;;;;;;;;;;1924742;74;21031;-48
2024/04/16 19:06:51;;;;;;;2.42;0.90;;;;;;;;;;1924944;74;21105;-48
2024/04/16 19:09:20;;;;;;;3.15;1.02;;;;;;;;;;1924954;74;21027;-48
2024/04/16 19:11:50;;;;;;;2.30;0.90;;;;;;;;;;1924806;74;21031;-48
2024/04/16 19:14:19;;;;;;;0.95;0.82;;;;;;;;;;1924813;74;21117;-48
2024/04/16 19:16:49;;;;;;;2.08;1.20;;;;;;;;;;1924864;74;21073;-48
2024/04/16 19:19:18;;;;;;;3.98;0.93;;;;;;;;;;1924962;74;21046;-47
2024/04/16 19:21:46;;;;;;;1.95;1.00;;;;;;;;;;1918277;74;21047;-48
2024/04/16 19:24:15;;;;;;;1.92;0.70;;;;;;;;;;1905429;75;21141;-48
2024/04/16 19:26:44;;;;;;;3.70;1.22;;;;;;;;;;1905573;75;21028;-48
2024/04/16 19:29:12;;;;;;;1.32;0.72;;;;;;;;;;1905460;75;21108;-48
2024/04/16 19:31:41;;;;;;;2.62;1.22;;;;;;;;;;1905452;75;21105;-48
2024/04/16 19:34:09;;;;;;;2.25;0.82;;;;;;;;;;1905371;75;21039;-47
2024/04/16 19:36:39;;;;;;;1.20;0.75;;;;;;;;;;1905385;75;21055;-47
2024/04/16 19:39:08;;;;;;;1.70;0.90;;;;;;;;;;1905320;75;21086;-47
2024/04/16 19:41:36;;;;;;;1.55;1.10;;;;;;;;;;1905368;75;21086;-47
2024/04/16 19:44:06;;;;;;;2.37;1.00;;;;;;;;;;1905374;75;21101;-47
2024/04/16 19:46:35;;;;;;;1.92;0.90;;;;;;;;;;1905352;75;21020;-46
2024/04/16 19:49:03;;;;;;;1.25;0.70;;;;;;;;;;1905349;75;21032;-47
2024/04/16 19:51:32;;;;;;;1.85;0.65;;;;;;;;;;1905319;75;21008;-46
2024/04/16 19:54:00;;;;;;;2.15;0.85;;;;;;;;;;1905347;75;21085;-46
2024/04/16 19:56:29;;;;;;;1.85;1.10;;;;;;;;;;1905392;75;21105;-47
2024/04/16 19:58:57;;;;;;;2.27;0.80;;;;;;;;;;1905445;75;21109;-46
2024/04/16 20:01:26;;;;;;;2.47;0.95;;;;;;;;;;1905337;75;21032;-47
2024/04/16 20:03:55;;;;;;;1.50;0.70;;;;;;;;;;1905330;75;21109;-47
2024/04/16 20:06:23;;;;;;;3.40;0.90;;;;;;;;;;1905334;75;21043;-47
2024/04/16 20:08:55;;;;;;;1.67;0.75;;;;;;;;;;1905389;75;21035;-46
2024/04/16 20:11:24;;;;;;;1.62;0.70;;;;;;;;;;1905346;75;21027;-46
2024/04/16 20:13:55;;;;;;;1.65;0.90;;;;;;;;;;1905338;75;20999;-47
2024/04/16 20:16:23;;;;;;;3.67;0.90;;;;;;;;;;1905403;75;21027;-47
2024/04/16 20:18:54;;;;;;;0.80;0.60;;;;;;;;;;1905413;75;21079;-47
2024/04/16 20:21:22;;;;;;;4.08;0.70;;;;;;;;;;1905374;75;21465;-47
2024/04/16 20:23:51;;;;;;;1.52;0.70;;;;;;;;;;1905443;74;21019;-46
2024/04/16 20:26:19;;;;;;;1.95;0.70;;;;;;;;;;1905358;75;21028;-46
2024/04/16 20:28:48;;;;;;;2.58;0.82;;;;;;;;;;1905368;75;21082;-47
2024/04/16 20:31:17;;;;;;;1.55;1.07;;;;;;;;;;1905264;75;21004;-47
2024/04/16 20:33:46;;;;;;;2.27;1.10;;;;;;;;;;1905453;75;21024;-48
2024/04/16 20:36:14;;;;;;;1.00;0.88;;;;;;;;;;1905323;75;21039;-47
2024/04/16 20:38:43;;;;;;;2.05;0.88;;;;;;;;;;1905329;75;21554;-47
2024/04/16 20:41:11;;;;;;;1.52;0.70;;;;;;;;;;1905356;75;21109;-47
2024/04/16 20:43:40;;;;;;;2.90;0.88;;;;;;;;;;1905309;75;21109;-47
2024/04/16 20:46:09;;;;;;;2.92;1.00;;;;;;;;;;1905312;74;21055;-46
2024/04/16 20:48:39;;;;;;;2.17;0.82;;;;;;;;;;1905331;75;21124;-46
2024/04/16 20:51:08;;;;;;;3.47;1.10;;;;;;;;;;1905256;75;20983;-47
2024/04/16 20:53:36;;;;;;;3.62;1.02;;;;;;;;;;1905306;75;21016;-46
2024/04/16 20:56:05;;;;;;;4.55;0.90;;;;;;;;;;1905275;75;21023;-46
2024/04/16 20:58:33;;;;;;;2.12;1.05;;;;;;;;;;1905184;75;20984;-46
2024/04/16 21:01:02;;;;;;;1.10;0.78;;;;;;;;;;1905421;75;21043;-46
2024/04/16 21:03:30;;;;;;;1.70;0.80;;;;;;;;;;1905480;75;21156;-46
2024/04/16 21:05:59;;;;;;;0.82;0.68;;;;;;;;;;1905438;75;21109;-46
2024/04/16 21:08:28;;;;;;;1.20;0.90;;;;;;;;;;1905676;74;21097;-46
2024/04/16 21:10:56;;;;;;;2.87;1.22;;;;;;;;;;1905345;75;21129;-46
2024/04/16 21:13:25;;;;;;;1.52;0.80;;;;;;;;;;1905481;75;21019;-46
2024/04/16 21:15:53;;;;;;;4.35;1.10;;;;;;;;;;1905321;75;21089;-46
2024/04/16 21:18:22;;;;;;;5.28;1.02;;;;;;;;;;1905326;75;21007;-47
2024/04/16 21:20:51;;;;;;;1.90;1.20;;;;;;;;;;1905434;75;20980;-46
2024/04/16 21:23:21;;;;;;;3.42;0.90;;;;;;;;;;1905363;75;21119;-47
2024/04/16 21:25:49;;;;;;;1.60;0.88;;;;;;;;;;1905387;75;21079;-46
2024/04/16 21:28:18;;;;;;;2.17;0.90;;;;;;;;;;1905504;75;21125;-46
2024/04/16 21:30:46;;;;;;;1.37;0.68;;;;;;;;;;1905500;75;20980;-47
2024/04/16 21:33:15;;;;;;;1.25;0.70;;;;;;;;;;1905345;75;21097;-46
2024/04/16 21:35:44;;;;;;;3.60;0.88;;;;;;;;;;1905388;75;21077;-46
2024/04/16 21:38:12;;;;;;;2.85;0.93;;;;;;;;;;1905369;75;21031;-46
2024/04/16 21:40:41;;;;;;;1.98;0.65;;;;;;;;;;1905539;75;21008;-46
2024/04/16 21:43:10;;;;;;;2.15;0.60;;;;;;;;;;1905481;75;21510;-46
2024/04/16 21:45:38;;;;;;;1.95;0.90;;;;;;;;;;1905494;75;21062;-46
2024/04/16 21:48:07;;;;;;;3.98;1.07;;;;;;;;;;1905351;75;21031;-46
2024/04/16 21:50:36;;;;;;;1.60;0.85;;;;;;;;;;1905443;75;21018;-49
2024/04/16 21:53:05;;;;;;;1.92;0.80;;;;;;;;;;1905250;75;21101;-49
2024/04/16 21:55:33;;;;;;;2.92;0.90;;;;;;;;;;1905288;75;21016;-49
2024/04/16 21:58:02;;;;;;;5.08;1.10;;;;;;;;;;1905270;75;20996;-50
2024/04/16 22:00:30;;;;;;;2.20;0.80;;;;;;;;;;1905278;75;21101;-49
2024/04/16 22:03:00;;;;;;;4.12;0.68;;;;;;;;;;1905248;75;21050;-47
2024/04/16 22:05:29;;;;;;;2.87;2.27;;;;;;;;;;1905293;75;21023;-47
2024/04/16 22:08:00;;;;;;;1.98;0.80;;;;;;;;;;1905195;75;21039;-47
2024/04/16 22:10:29;;;;;;;2.10;0.80;;;;;;;;;;1905175;74;21058;-47
2024/04/16 22:12:58;;;;;;;3.80;0.95;;;;;;;;;;1905152;75;21055;-49
2024/04/16 22:15:27;;;;;;;2.52;1.20;;;;;;;;;;1905240;75;21048;-47
2024/04/16 22:17:55;;;;;;;1.30;0.62;;;;;;;;;;1905184;75;21082;-47
2024/04/16 22:20:24;;;;;;;3.08;1.10;;;;;;;;;;1905350;75;21122;-47
2024/04/16 22:22:54;;;;;;;1.82;0.90;;;;;;;;;;1908275;74;21022;-47
2024/04/16 22:25:22;;;;;;;1.40;0.60;;;;;;;;;;1924728;74;21133;-47
2024/04/16 22:27:51;;;;;;;2.00;0.70;;;;;;;;;;1924750;74;21035;-46
2024/04/16 22:30:20;;;;;;;1.50;0.78;;;;;;;;;;1924711;74;21027;-47
2024/04/16 22:32:48;;;;;;;1.37;0.88;;;;;;;;;;1924814;74;21070;-47
2024/04/16 22:35:16;;;;;;;1.65;1.00;;;;;;;;;;1924878;74;21089;-49
2024/04/16 22:37:45;;;;;;;2.75;1.07;;;;;;;;;;1924801;74;21014;-47
2024/04/16 22:40:13;;;;;;;2.02;0.82;;;;;;;;;;1924782;74;21030;-48
2024/04/16 22:42:42;;;;;;;2.02;1.02;;;;;;;;;;1924980;74;21022;-47
2024/04/16 22:45:10;;;;;;;1.25;0.85;;;;;;;;;;1924789;74;21096;-47
2024/04/16 22:47:39;;;;;;;1.10;0.75;;;;;;;;;;1924745;74;21066;-46
2024/04/16 22:50:07;;;;;;;4.12;1.00;;;;;;;;;;1924771;74;21030;-47
2024/04/16 22:52:36;;;;;;;5.55;1.00;;;;;;;;;;1924690;74;20991;-46
2024/04/16 22:55:05;;;;;;;1.95;0.78;;;;;;;;;;1924779;74;21007;-46
2024/04/16 22:57:33;;;;;;;4.20;1.65;;;;;;;;;;1924731;74;21086;-49
2024/04/16 23:00:01;;;;;;;1.55;0.80;;;;;;;;;;1924772;74;21093;-47
2024/04/16 23:02:30;;;;;;;2.08;0.90;;;;;;;;;;1924913;74;21015;-46
2024/04/16 23:04:59;;;;;;;1.27;0.80;;;;;;;;;;1924779;74;21070;-46
2024/04/16 23:07:27;;;;;;;4.28;0.95;;;;;;;;;;1924906;74;21010;-47
2024/04/16 23:09:56;;;;;;;1.32;1.05;;;;;;;;;;1924749;74;21007;-47
2024/04/16 23:12:24;;;;;;;3.62;1.00;;;;;;;;;;1924716;74;21011;-47
2024/04/16 23:14:52;;;;;;;1.45;0.93;;;;;;;;;;1924784;74;21050;-47
2024/04/16 23:17:21;;;;;;;1.25;0.88;;;;;;;;;;1924778;74;21014;-47
2024/04/16 23:19:49;;;;;;;2.83;1.00;;;;;;;;;;1924748;74;21629;-47
2024/04/16 23:22:18;;;;;;;1.72;0.80;;;;;;;;;;1924737;74;21030;-47
2024/04/16 23:24:47;;;;;;;3.27;1.02;;;;;;;;;;1924660;74;21121;-47
2024/04/16 23:27:16;;;;;;;1.77;1.22;;;;;;;;;;1924866;74;20987;-47
2024/04/16 23:29:45;;;;;;;4.22;2.08;;;;;;;;;;1924757;74;21100;-47
2024/04/16 23:32:13;;;;;;;2.50;1.20;;;;;;;;;;1924690;74;21010;-47
2024/04/16 23:34:41;;;;;;;2.05;0.80;;;;;;;;;;1924754;74;21093;-47
2024/04/16 23:37:11;;;;;;;2.47;0.90;;;;;;;;;;1924906;74;21089;-47
2024/04/16 23:39:41;;;;;;;1.47;0.82;;;;;;;;;;1924852;74;21007;-47
2024/04/16 23:42:09;;;;;;;1.85;1.02;;;;;;;;;;1924788;74;21105;-48
2024/04/16 23:44:39;;;;;;;2.85;1.00;;;;;;;;;;1924750;74;20995;-47
2024/04/16 23:47:08;;;;;;;1.77;0.95;;;;;;;;;;1924907;74;21015;-47
2024/04/16 23:49:36;;;;;;;1.20;0.70;;;;;;;;;;1924731;74;21109;-47
2024/04/16 23:52:05;;;;;;;1.40;0.90;;;;;;;;;;1924776;74;21038;-47
2024/04/16 23:54:33;;;;;;;2.75;0.70;;;;;;;;;;1924756;74;21023;-47
2024/04/16 23:57:02;;;;;;;1.65;1.10;;;;;;;;;;1924783;74;21068;-47
2024/04/16 23:59:30;;;;;;;1.00;0.70;;;;;;;;;;1924714;74;21090;-46
